Terminal Aerodrome Forecast
Issued by NWS Melbourne, FL

Home | Current Version | Previous Version | Text Only | Print | Product List | Glossary On
Versions: 1 2 3 4 5 6 7 8 9 10 11 12 13 14
004
FTUS42 KMLB 110347 AAB
TAFMLB
TAF AMD
KMLB 110347Z 1104/1124 07012KT P6SM FEW045
     FM110900 06010KT P6SM BKN035
     FM111400 09014KT P6SM VCSH BKN030=

USA.gov is the U.S. government's official web portal to all federal, state and local government web resources and services.